createdAt,value
2022-11-13T00:01:21.463Z,13.50
2022-11-13T00:03:48.091Z,13.87
2022-11-13T00:06:15.528Z,14.13
2022-11-13T00:08:42.493Z,13.97
2022-11-13T00:11:12.330Z,14.23
2022-11-13T00:13:39.406Z,13.57
2022-11-13T00:16:08.404Z,13.30
2022-11-13T00:18:35.691Z,13.50
2022-11-13T00:21:20.181Z,13.20
2022-11-13T00:23:46.935Z,13.10
2022-11-13T00:26:18.852Z,12.97
2022-11-13T00:28:46.827Z,13.50
2022-11-13T00:31:15.487Z,13.77
2022-11-13T00:36:29.726Z,13.23
2022-11-13T00:38:56.463Z,13.17
2022-11-13T00:41:24.117Z,13.67
2022-11-13T00:43:51.168Z,12.57
2022-11-13T00:46:17.705Z,12.50
2022-11-13T00:48:44.347Z,12.63
2022-11-13T00:51:11.277Z,12.70
2022-11-13T00:53:37.866Z,12.23
2022-11-13T00:56:04.713Z,12.63
2022-11-13T00:58:31.942Z,11.93
2022-11-13T01:01:08.506Z,12.93
2022-11-13T01:03:35.250Z,13.07
2022-11-13T01:06:08.740Z,13.00
2022-11-13T01:08:35.407Z,13.03
2022-11-13T01:11:08.626Z,13.33
2022-11-13T01:13:35.113Z,13.10
2022-11-13T01:16:06.133Z,12.10
2022-11-13T01:18:32.649Z,11.80
2022-11-13T01:21:07.420Z,11.47
2022-11-13T01:23:34.617Z,12.70
2022-11-13T01:26:25.140Z,12.20
2022-11-13T01:28:52.418Z,12.73
2022-11-13T01:31:22.199Z,12.23
2022-11-13T01:33:49.307Z,11.77
2022-11-13T01:36:25.203Z,12.47
2022-11-13T01:38:52.114Z,12.73
2022-11-13T01:41:27.974Z,12.20
2022-11-13T01:43:55.226Z,12.83
2022-11-13T01:46:36.684Z,11.53
2022-11-13T01:49:12.138Z,11.67
2022-11-13T01:52:06.226Z,12.67
2022-11-13T01:54:36.817Z,12.93
2022-11-13T01:57:04.375Z,11.93
2022-11-13T01:59:34.843Z,12.57
2022-11-13T02:02:01.975Z,11.90
2022-11-13T02:04:29.208Z,11.97
2022-11-13T02:06:58.529Z,12.60
2022-11-13T02:09:28.115Z,11.33
2022-11-13T02:11:55.285Z,11.93
2022-11-13T02:14:23.703Z,12.17
2022-11-13T02:16:53.238Z,12.13
2022-11-13T02:19:24.285Z,12.10
2022-11-13T02:21:54.463Z,12.13
2022-11-13T02:24:37.887Z,12.37
2022-11-13T02:27:07.094Z,12.27
2022-11-13T02:29:33.561Z,12.00
2022-11-13T02:32:00.229Z,11.77
2022-11-13T02:34:26.776Z,13.07
2022-11-13T02:36:53.300Z,11.73
2022-11-13T02:39:19.918Z,11.37
2022-11-13T02:41:46.394Z,11.70
2022-11-13T02:44:12.886Z,11.67
2022-11-13T02:46:39.527Z,11.67
2022-11-13T02:49:06.276Z,11.70
2022-11-13T02:51:32.813Z,10.97
2022-11-13T02:53:59.551Z,12.03
2022-11-13T02:56:26.146Z,12.17
2022-11-13T02:58:52.698Z,12.57
2022-11-13T03:01:19.415Z,12.27
2022-11-13T03:03:57.572Z,11.10
2022-11-13T03:06:25.010Z,11.70
2022-11-13T03:08:51.680Z,11.90
2022-11-13T03:11:18.170Z,12.30
2022-11-13T03:13:44.665Z,12.27
2022-11-13T03:16:14.458Z,11.60
2022-11-13T03:18:42.202Z,11.20
2022-11-13T03:21:10.788Z,11.67
2022-11-13T03:23:37.766Z,11.80
2022-11-13T03:26:10.700Z,11.67
2022-11-13T03:28:37.390Z,11.57
2022-11-13T03:31:04.710Z,11.33
2022-11-13T03:33:31.353Z,11.43
2022-11-13T03:35:58.174Z,12.73
2022-11-13T03:38:24.867Z,11.40
2022-11-13T03:40:51.876Z,11.60
2022-11-13T03:43:18.824Z,11.37
2022-11-13T03:45:46.800Z,11.30
2022-11-13T03:48:14.587Z,10.43
2022-11-13T03:50:45.614Z,11.00
2022-11-13T03:53:12.591Z,10.60
2022-11-13T03:55:39.407Z,11.60
2022-11-13T03:58:06.144Z,10.20
2022-11-13T04:00:33.310Z,11.43
2022-11-13T04:02:59.937Z,11.17
2022-11-13T04:05:27.069Z,11.57
2022-11-13T04:07:53.784Z,11.33
2022-11-13T04:10:20.343Z,11.50
2022-11-13T04:12:47.026Z,10.80
2022-11-13T04:15:13.728Z,11.37
2022-11-13T04:17:40.381Z,11.33
2022-11-13T04:20:08.038Z,10.00
2022-11-13T04:22:34.951Z,10.20
2022-11-13T04:25:01.644Z,11.27
2022-11-13T04:27:28.150Z,10.83
2022-11-13T04:29:54.674Z,10.70
2022-11-13T04:32:21.227Z,10.37
2022-11-13T04:34:47.962Z,10.80
2022-11-13T04:37:14.635Z,9.80
2022-11-13T04:39:41.182Z,10.07
2022-11-13T04:42:28.342Z,10.30
2022-11-13T04:44:54.945Z,10.20
2022-11-13T04:47:21.541Z,9.47
2022-11-13T04:49:48.218Z,9.50
2022-11-13T04:52:15.149Z,10.13
2022-11-13T04:54:41.783Z,10.20
2022-11-13T04:57:08.689Z,9.87
2022-11-13T04:59:35.238Z,9.67
2022-11-13T05:02:02.050Z,9.20
2022-11-13T05:04:28.727Z,9.80
2022-11-13T05:06:55.249Z,10.77
2022-11-13T05:09:21.929Z,10.87
2022-11-13T05:11:48.433Z,9.83
2022-11-13T05:14:15.070Z,10.57
2022-11-13T05:16:41.725Z,10.23
2022-11-13T05:19:08.548Z,11.07
2022-11-13T05:21:36.632Z,9.60
2022-11-13T05:24:06.790Z,9.40
2022-11-13T05:26:33.290Z,9.90
2022-11-13T05:29:00.854Z,9.00
2022-11-13T05:31:27.867Z,9.53
2022-11-13T05:33:54.589Z,9.50
2022-11-13T05:36:22.106Z,9.83
2022-11-13T05:38:49.258Z,9.27
2022-11-13T05:41:18.522Z,9.27
2022-11-13T05:43:45.647Z,9.13
2022-11-13T05:46:13.346Z,8.80
2022-11-13T05:48:40.795Z,8.70
2022-11-13T05:51:19.120Z,9.77
2022-11-13T05:53:45.846Z,9.03
2022-11-13T05:56:21.892Z,9.20
2022-11-13T05:58:49.620Z,8.47
2022-11-13T06:01:19.154Z,8.33
2022-11-13T06:03:46.376Z,9.17
2022-11-13T06:06:15.226Z,7.77
2022-11-13T06:08:42.404Z,7.63
2022-11-13T06:11:11.799Z,8.20
2022-11-13T06:13:38.869Z,8.10
2022-11-13T06:16:11.369Z,8.47
2022-11-13T06:18:38.783Z,9.03
2022-11-13T06:21:08.286Z,8.80
2022-11-13T06:23:36.792Z,8.07
2022-11-13T06:26:10.654Z,8.40
2022-11-13T06:28:37.646Z,7.70
2022-11-13T06:31:09.322Z,8.10
2022-11-13T06:33:36.285Z,8.23
2022-11-13T06:36:07.392Z,8.23
2022-11-13T06:38:35.680Z,8.50
2022-11-13T06:41:03.034Z,7.83
2022-11-13T06:43:30.386Z,7.83
2022-11-13T06:45:57.375Z,7.60
2022-11-13T06:48:24.616Z,8.40
2022-11-13T06:50:51.752Z,8.80
2022-11-13T06:53:18.455Z,8.40
2022-11-13T06:55:46.132Z,7.90
2022-11-13T06:58:13.006Z,8.47
2022-11-13T07:00:40.710Z,8.10
2022-11-13T07:03:21.266Z,8.67
2022-11-13T07:05:48.096Z,9.00
2022-11-13T07:08:15.343Z,9.23
2022-11-13T07:10:42.520Z,9.07
2022-11-13T07:13:10.238Z,8.77
2022-11-13T07:15:37.986Z,8.30
2022-11-13T07:18:05.892Z,9.53
2022-11-13T07:20:33.912Z,8.57
2022-11-13T07:23:01.683Z,8.27
2022-11-13T07:25:29.007Z,8.30
2022-11-13T07:27:55.508Z,8.47
2022-11-13T07:30:22.521Z,7.77
2022-11-13T07:32:49.173Z,8.67
2022-11-13T07:35:16.824Z,8.07
2022-11-13T07:37:44.027Z,8.77
2022-11-13T07:40:11.394Z,8.70
2022-11-13T07:42:39.023Z,8.10
2022-11-13T07:45:06.348Z,7.67
2022-11-13T07:47:33.013Z,8.23
2022-11-13T07:50:05.609Z,7.83
2022-11-13T07:52:34.872Z,7.80
2022-11-13T07:55:01.535Z,8.37
2022-11-13T07:57:27.991Z,8.20
2022-11-13T07:59:54.701Z,8.47
2022-11-13T08:02:25.241Z,8.10
2022-11-13T08:04:53.432Z,8.40
2022-11-13T08:07:20.022Z,7.70
2022-11-13T08:09:46.597Z,8.63
2022-11-13T08:12:13.436Z,8.97
2022-11-13T08:14:39.901Z,8.33
2022-11-13T08:17:06.695Z,8.63
2022-11-13T08:19:33.708Z,9.30
2022-11-13T08:22:00.333Z,9.00
2022-11-13T08:24:26.841Z,8.90
2022-11-13T08:26:53.569Z,9.10
2022-11-13T08:29:20.052Z,10.30
2022-11-13T08:31:46.799Z,8.60
2022-11-13T08:34:13.457Z,9.87
2022-11-13T08:36:40.007Z,9.20
2022-11-13T08:39:06.515Z,9.20
2022-11-13T08:41:33.160Z,7.87
2022-11-13T08:43:59.695Z,7.60
2022-11-13T08:46:26.549Z,6.67
2022-11-13T08:48:53.078Z,7.67
2022-11-13T08:51:19.606Z,7.20
2022-11-13T08:53:46.224Z,6.60
2022-11-13T08:56:12.923Z,6.77
2022-11-13T08:58:40.747Z,7.50
2022-11-13T09:01:07.386Z,7.07
2022-11-13T09:03:36.174Z,7.13
2022-11-13T09:06:07.642Z,6.93
2022-11-13T09:08:34.331Z,6.83
2022-11-13T09:11:05.356Z,6.80
2022-11-13T09:13:38.681Z,7.17
2022-11-13T09:16:09.905Z,9.03
2022-11-13T09:18:36.460Z,7.30
2022-11-13T09:21:03.987Z,7.10
2022-11-13T09:23:31.107Z,6.87
2022-11-13T09:26:01.929Z,6.50
2022-11-13T09:28:28.738Z,7.00
2022-11-13T09:30:55.692Z,7.60
2022-11-13T09:33:22.184Z,7.07
2022-11-13T09:35:48.707Z,7.43
2022-11-13T09:38:15.993Z,8.53
2022-11-13T09:40:49.934Z,8.97
2022-11-13T09:43:32.362Z,8.33
2022-11-13T09:46:05.180Z,7.43
2022-11-13T09:48:36.740Z,8.63
2022-11-13T09:51:15.564Z,8.17
2022-11-13T09:53:42.371Z,7.33
2022-11-13T09:56:21.370Z,7.30
2022-11-13T09:58:50.923Z,8.10
2022-11-13T10:02:12.890Z,8.03
2022-11-13T10:05:07.576Z,7.63
2022-11-13T10:08:02.666Z,6.73
2022-11-13T10:10:37.070Z,6.37
2022-11-13T10:13:04.382Z,6.30
2022-11-13T10:15:31.185Z,6.50
2022-11-13T10:18:04.037Z,7.30
2022-11-13T10:20:39.076Z,6.43
2022-11-13T10:23:14.641Z,6.33
2022-11-13T10:25:42.840Z,7.00
2022-11-13T10:28:49.019Z,6.30
2022-11-13T10:31:11.132Z,5.93
2022-11-13T10:33:37.681Z,12.77
2022-11-13T10:36:24.420Z,9.53
2022-11-13T10:38:58.739Z,5.20
2022-11-13T10:41:25.405Z,4.20
2022-11-13T10:43:52.688Z,4.20
2022-11-13T10:46:25.511Z,4.33
2022-11-13T10:48:52.529Z,5.20
2022-11-13T10:51:35.208Z,5.53
2022-11-13T10:54:20.483Z,5.30
2022-11-13T10:57:00.213Z,5.33
2022-11-13T10:59:27.584Z,5.10
2022-11-13T11:01:54.160Z,5.30
2022-11-13T11:04:22.136Z,5.30
2022-11-13T11:07:18.357Z,5.17
2022-11-13T11:09:38.512Z,4.90
2022-11-13T11:12:16.962Z,4.83
2022-11-13T11:14:59.016Z,7.17
2022-11-13T11:17:25.668Z,5.37
2022-11-13T11:20:05.952Z,5.27
2022-11-13T11:22:35.069Z,4.83
2022-11-13T11:25:16.298Z,4.47
2022-11-13T11:27:42.762Z,4.07
2022-11-13T11:30:18.118Z,3.57
2022-11-13T11:32:44.920Z,4.77
2022-11-13T11:35:20.726Z,3.63
2022-11-13T11:38:03.119Z,3.63
2022-11-13T11:40:48.523Z,4.27
2022-11-13T11:43:24.198Z,3.70
2022-11-13T11:45:50.815Z,3.80
2022-11-13T11:48:27.834Z,3.40
2022-11-13T11:51:07.198Z,4.00
2022-11-13T11:53:45.916Z,3.80
2022-11-13T11:56:31.845Z,3.77
2022-11-13T11:59:39.752Z,3.80
2022-11-13T12:02:06.446Z,3.30
2022-11-13T12:05:03.607Z,3.53
2022-11-13T12:07:41.743Z,4.03
2022-11-13T12:10:32.736Z,3.60
2022-11-13T12:13:02.481Z,3.83
2022-11-13T12:15:31.654Z,3.83
2022-11-13T12:18:21.477Z,4.07
2022-11-13T12:20:50.870Z,4.33
2022-11-13T12:23:58.091Z,4.50
2022-11-13T12:26:45.968Z,3.67
2022-11-13T12:29:25.588Z,5.77
2022-11-13T12:32:04.707Z,4.93
2022-11-13T12:34:37.398Z,4.37
2022-11-13T12:37:10.638Z,4.20
2022-11-13T12:39:53.612Z,4.07
2022-11-13T12:42:55.574Z,4.30
2022-11-13T12:45:44.803Z,5.80
2022-11-13T12:48:14.327Z,4.20
2022-11-13T12:50:40.906Z,4.40
2022-11-13T12:53:12.763Z,4.37
2022-11-13T12:55:40.810Z,3.63
2022-11-13T12:58:20.353Z,4.17
2022-11-13T13:01:13.049Z,3.90
2022-11-13T13:04:21.568Z,3.43
2022-11-13T13:07:45.386Z,3.47
2022-11-13T13:10:32.936Z,3.60
2022-11-13T13:13:02.283Z,3.93
2022-11-13T13:15:38.807Z,3.97
2022-11-13T13:18:17.521Z,3.63
2022-11-13T13:21:04.439Z,3.57
2022-11-13T13:23:33.782Z,3.67
2022-11-13T13:26:06.702Z,4.33
2022-11-13T13:28:33.895Z,4.53
2022-11-13T13:31:22.088Z,3.80
2022-11-13T13:33:57.568Z,3.53
2022-11-13T13:36:33.184Z,3.70
2022-11-13T13:39:16.307Z,3.97
2022-11-13T13:42:11.626Z,3.07
2022-11-13T13:44:44.276Z,3.23
2022-11-13T13:47:30.188Z,3.13
2022-11-13T13:49:58.080Z,3.10
2022-11-13T13:52:36.354Z,3.30
2022-11-13T13:55:05.495Z,3.23
2022-11-13T13:57:32.442Z,3.20
2022-11-13T13:59:59.688Z,3.00
2022-11-13T14:02:27.780Z,2.90
2022-11-13T14:04:55.428Z,2.40
2022-11-13T14:07:28.796Z,2.50
2022-11-13T14:10:14.541Z,2.87
2022-11-13T14:12:43.942Z,2.70
2022-11-13T14:15:32.666Z,2.37
2022-11-13T14:18:18.720Z,2.63
2022-11-13T14:20:47.982Z,2.40
2022-11-13T14:23:30.107Z,2.20
2022-11-13T14:25:57.454Z,2.47
2022-11-13T14:28:35.019Z,2.20
2022-11-13T14:31:08.017Z,2.17
2022-11-13T14:33:41.113Z,2.60
2022-11-13T14:36:08.241Z,2.30
2022-11-13T14:38:37.285Z,2.80
2022-11-13T14:41:05.010Z,2.30
2022-11-13T14:43:34.058Z,2.63
2022-11-13T14:46:04.709Z,2.60
2022-11-13T14:48:34.028Z,2.80
2022-11-13T14:51:04.265Z,2.77
2022-11-13T14:53:35.976Z,2.73
2022-11-13T14:56:10.923Z,2.50
2022-11-13T14:58:47.887Z,2.73
2022-11-13T15:01:24.462Z,2.47
2022-11-13T15:03:52.810Z,2.50
2022-11-13T15:06:27.445Z,2.77
2022-11-13T15:08:58.398Z,3.00
2022-11-13T15:11:26.949Z,2.70
2022-11-13T15:13:53.667Z,3.30
2022-11-13T15:16:27.824Z,3.20
2022-11-13T15:18:54.903Z,2.77
2022-11-13T15:21:21.898Z,3.37
2022-11-13T15:23:49.363Z,3.40
2022-11-13T15:26:16.331Z,5.67
2022-11-13T15:28:42.947Z,6.50
2022-11-13T15:31:27.340Z,4.80
2022-11-13T15:33:54.159Z,3.30
2022-11-13T15:36:20.876Z,3.70
2022-11-13T15:38:47.912Z,3.43
2022-11-13T15:41:24.871Z,3.50
2022-11-13T15:43:53.736Z,3.80
2022-11-13T15:46:23.286Z,3.80
2022-11-13T15:48:50.699Z,3.73
2022-11-13T15:51:26.538Z,3.80
2022-11-13T15:54:11.502Z,3.57
2022-11-13T15:56:38.601Z,3.67
2022-11-13T15:59:05.560Z,4.00
2022-11-13T16:01:32.558Z,4.10
2022-11-13T16:04:02.691Z,4.40
2022-11-13T16:06:30.481Z,3.97
2022-11-13T16:08:57.576Z,3.93
2022-11-13T16:11:24.369Z,3.87
2022-11-13T16:13:51.442Z,4.40
2022-11-13T16:16:20.651Z,4.60
2022-11-13T16:18:47.772Z,19.33
2022-11-13T16:21:14.697Z,8.40
2022-11-13T16:23:42.292Z,5.57
2022-11-13T16:26:24.129Z,4.70
2022-11-13T16:29:12.568Z,5.00
2022-11-13T16:31:40.533Z,4.97
2022-11-13T16:34:07.541Z,4.90
2022-11-13T16:36:34.258Z,5.40
2022-11-13T16:39:01.118Z,4.67
2022-11-13T16:41:27.903Z,5.43
2022-11-13T16:43:54.721Z,5.20
2022-11-13T16:46:27.293Z,5.57
2022-11-13T16:48:54.007Z,5.23
2022-11-13T16:51:20.968Z,4.80
2022-11-13T16:53:48.047Z,4.10
2022-11-13T16:56:18.083Z,4.63
2022-11-13T16:58:44.943Z,4.60
2022-11-13T17:01:17.749Z,4.83
2022-11-13T17:03:46.319Z,4.90
2022-11-13T17:06:20.087Z,6.53
2022-11-13T17:08:52.600Z,5.40
2022-11-13T17:11:19.517Z,5.03
2022-11-13T17:13:51.350Z,4.93
2022-11-13T17:16:19.354Z,4.23
2022-11-13T17:18:48.657Z,5.23
2022-11-13T17:21:26.630Z,5.50
2022-11-13T17:24:01.828Z,44.53
2022-11-13T17:26:30.225Z,25.27
2022-11-13T17:28:59.557Z,19.47
2022-11-13T17:31:27.185Z,9.60
2022-11-13T17:33:55.066Z,6.73
2022-11-13T17:36:22.626Z,7.00
2022-11-13T17:38:49.852Z,7.60
2022-11-13T17:41:17.335Z,6.13
2022-11-13T17:43:44.709Z,6.67
2022-11-13T17:46:15.209Z,9.47
2022-11-13T17:48:42.526Z,7.93
2022-11-13T17:51:12.908Z,7.23
2022-11-13T17:53:40.178Z,6.80
2022-11-13T17:56:11.086Z,6.27
2022-11-13T17:58:42.399Z,6.63
2022-11-13T18:01:17.539Z,4.90
2022-11-13T18:03:45.245Z,4.37
2022-11-13T18:06:16.908Z,4.73
2022-11-13T18:08:46.440Z,4.73
2022-11-13T18:11:19.382Z,5.23
2022-11-13T18:13:46.993Z,4.83
2022-11-13T18:16:18.979Z,5.00
2022-11-13T18:18:50.517Z,4.47
2022-11-13T18:21:23.204Z,4.73
2022-11-13T18:23:56.454Z,4.60
2022-11-13T18:26:23.265Z,4.40
2022-11-13T18:28:49.937Z,4.70
2022-11-13T18:31:17.970Z,5.17
2022-11-13T18:33:44.834Z,4.70
2022-11-13T18:36:11.638Z,5.57
2022-11-13T18:38:38.400Z,20.60
2022-11-13T18:41:07.848Z,10.33
2022-11-13T18:43:35.231Z,7.00
2022-11-13T18:46:04.944Z,7.23
2022-11-13T18:48:33.452Z,7.03
2022-11-13T18:51:02.698Z,6.47
2022-11-13T18:53:30.040Z,5.20
2022-11-13T18:56:00.836Z,4.97
2022-11-13T18:58:28.209Z,4.70
2022-11-13T19:00:55.055Z,5.00
2022-11-13T19:03:22.558Z,5.87
2022-11-13T19:05:49.269Z,5.73
2022-11-13T19:08:16.613Z,5.63
2022-11-13T19:10:43.238Z,6.17
2022-11-13T19:13:10.224Z,5.40
2022-11-13T19:15:38.711Z,5.73
2022-11-13T19:18:06.531Z,4.33
2022-11-13T19:20:33.332Z,4.47
2022-11-13T19:23:01.405Z,4.53
2022-11-13T19:25:31.219Z,4.20
2022-11-13T19:27:58.009Z,4.53
2022-11-13T19:30:24.649Z,4.17
2022-11-13T19:32:51.156Z,4.73
2022-11-13T19:35:17.654Z,8.07
2022-11-13T19:37:44.320Z,5.70
2022-11-13T19:40:11.520Z,5.53
2022-11-13T19:42:40.886Z,5.77
2022-11-13T19:45:08.977Z,5.27
2022-11-13T19:47:35.643Z,5.17
2022-11-13T19:50:02.346Z,5.50
2022-11-13T19:52:29.097Z,5.80
2022-11-13T19:54:55.738Z,5.97
2022-11-13T19:57:22.348Z,6.73
2022-11-13T19:59:48.904Z,5.90
2022-11-13T20:02:15.550Z,5.50
2022-11-13T20:04:42.138Z,6.10
2022-11-13T20:07:11.372Z,5.30
2022-11-13T20:09:38.204Z,5.57
2022-11-13T20:12:05.238Z,6.10
2022-11-13T20:14:36.989Z,5.47
2022-11-13T20:17:05.111Z,6.30
2022-11-13T20:19:31.767Z,6.03
2022-11-13T20:21:58.462Z,4.93
2022-11-13T20:24:25.154Z,4.67
2022-11-13T20:26:51.897Z,4.90
2022-11-13T20:29:18.736Z,4.73
2022-11-13T20:31:45.507Z,5.50
2022-11-13T20:34:12.241Z,5.87
2022-11-13T20:36:39.232Z,6.33
2022-11-13T20:39:09.315Z,6.50
2022-11-13T20:41:36.850Z,5.47
2022-11-13T20:44:03.809Z,6.00
2022-11-13T20:46:30.915Z,5.00
2022-11-13T20:48:57.899Z,4.97
2022-11-13T20:51:26.674Z,5.63
2022-11-13T20:53:53.723Z,5.03
2022-11-13T20:56:22.757Z,5.37
2022-11-13T20:58:49.717Z,5.30
2022-11-13T21:01:18.892Z,5.20
2022-11-13T21:03:46.159Z,5.27
2022-11-13T21:06:15.881Z,4.80
2022-11-13T21:08:43.453Z,4.70
2022-11-13T21:11:14.471Z,4.33
2022-11-13T21:13:41.070Z,4.80
2022-11-13T21:16:08.959Z,4.27
2022-11-13T21:18:35.787Z,4.63
2022-11-13T21:21:07.411Z,4.67
2022-11-13T21:23:34.059Z,4.20
2022-11-13T21:26:01.443Z,4.40
2022-11-13T21:28:32.316Z,4.43
2022-11-13T21:31:04.580Z,4.20
2022-11-13T21:33:38.440Z,4.80
2022-11-13T21:36:11.792Z,5.40
2022-11-13T21:38:38.837Z,4.50
2022-11-13T21:41:22.022Z,4.60
2022-11-13T21:44:03.250Z,4.77
2022-11-13T21:46:31.868Z,4.20
2022-11-13T21:49:06.662Z,4.47
2022-11-13T21:51:35.204Z,4.60
2022-11-13T21:54:02.183Z,4.17
2022-11-13T21:56:30.135Z,4.60
2022-11-13T21:58:56.973Z,4.77
2022-11-13T22:01:24.268Z,4.80
2022-11-13T22:03:51.202Z,5.10
2022-11-13T22:06:23.679Z,5.43
2022-11-13T22:08:55.801Z,5.43
2022-11-13T22:11:24.090Z,5.47
2022-11-13T22:13:50.955Z,4.53
2022-11-13T22:16:17.653Z,6.10
2022-11-13T22:18:44.680Z,5.50
2022-11-13T22:21:13.858Z,5.60
2022-11-13T22:23:40.943Z,5.47
2022-11-13T22:26:09.787Z,4.77
2022-11-13T22:28:37.868Z,4.90
2022-11-13T22:31:05.218Z,4.83
2022-11-13T22:33:33.997Z,5.27
2022-11-13T22:36:05.128Z,4.83
2022-11-13T22:38:33.373Z,4.80
2022-11-13T22:41:10.118Z,5.17
2022-11-13T22:43:38.686Z,5.10
2022-11-13T22:46:06.916Z,5.47
2022-11-13T22:48:35.097Z,4.80
2022-11-13T22:51:07.265Z,5.00
2022-11-13T22:53:33.945Z,4.60
2022-11-13T22:56:02.383Z,5.10
2022-11-13T22:58:29.412Z,4.50
2022-11-13T23:00:56.342Z,4.27
2022-11-13T23:03:22.970Z,4.93
2022-11-13T23:05:49.511Z,5.17
2022-11-13T23:08:16.535Z,5.00
2022-11-13T23:10:43.093Z,5.00
2022-11-13T23:13:09.668Z,5.00
2022-11-13T23:15:36.353Z,5.17
2022-11-13T23:18:05.828Z,4.90
2022-11-13T23:20:39.870Z,4.97
2022-11-13T23:23:06.591Z,5.17
2022-11-13T23:25:33.862Z,5.10
2022-11-13T23:28:00.361Z,4.97
2022-11-13T23:30:27.447Z,5.50
2022-11-13T23:32:53.990Z,5.10
2022-11-13T23:35:20.499Z,4.87
2022-11-13T23:37:47.466Z,5.37
2022-11-13T23:40:14.170Z,5.60
2022-11-13T23:42:54.723Z,4.60
2022-11-13T23:45:22.035Z,4.83
2022-11-13T23:47:48.735Z,4.93
2022-11-13T23:50:15.616Z,5.03
2022-11-13T23:52:42.208Z,5.77
2022-11-13T23:55:09.279Z,5.10
2022-11-13T23:57:36.022Z,5.03
